Time;durP1;ratioP1;P1;durP2;ratioP2;P2;SDS_P1;SDS_P2;PMS_P1;PMS_P2;Temp;Humidity;BMP_temperature;BMP_pressure;BME280_temperature;BME280_humidity;BME280_pressure;Samples;Min_cycle;Max_cycle;Signal;HPM_P1;HPM_P2
2021/04/23 00:00:44;;;;;;;9.97;4.20;;;9.70;71.40;;;;;;5026245;28;20504;-66
2021/04/23 00:03:34;;;;;;;8.30;2.77;;;9.80;70.60;;;;;;5050004;28;20487;-66
2021/04/23 00:06:22;;;;;;;11.30;3.33;;;9.80;71.10;;;;;;5049626;28;20424;-68
2021/04/23 00:08:52;;;;;;;16.33;4.30;;;9.80;70.50;;;;;;5049462;28;20918;-67
2021/04/23 00:11:30;;;;;;;11.67;3.50;;;9.70;71.20;;;;;;5047531;28;20509;-67
2021/04/23 00:13:55;;;;;;;8.00;3.50;;;9.70;71.20;;;;;;5044872;28;20411;-64
2021/04/23 00:16:21;;;;;;;12.23;3.60;;;9.70;70.50;;;;;;5047237;28;20456;-66
2021/04/23 00:18:47;;;;;;;7.50;3.70;;;9.70;71.50;;;;;;5050378;28;20775;-68
2021/04/23 00:21:17;;;;;;;6.97;3.87;;;9.70;71.60;;;;;;5049833;28;20258;-66
2021/04/23 00:23:44;;;;;;;8.13;3.83;;;9.70;71.20;;;;;;5030384;28;20935;-65
2021/04/23 00:26:09;;;;;;;13.53;4.60;;;9.60;70.10;;;;;;5052469;28;20425;-67
2021/04/23 00:28:36;;;;;;;8.33;4.33;;;9.50;70.10;;;;;;5046455;28;20896;-65
2021/04/23 00:31:03;;;;;;;10.60;3.90;;;9.60;72.20;;;;;;5050537;28;20257;-67
2021/04/23 00:33:29;;;;;;;12.43;4.10;;;9.60;71.90;;;;;;5043255;28;20525;-65
2021/04/23 00:35:55;;;;;;;13.37;4.17;;;9.60;72.40;;;;;;5045713;28;20417;-68
2021/04/23 00:38:24;;;;;;;15.77;4.13;;;9.60;72.50;;;;;;5045999;28;20465;-65
2021/04/23 00:40:50;;;;;;;13.87;4.13;;;9.50;72.80;;;;;;5047306;28;20468;-66
2021/04/23 00:43:26;;;;;;;12.60;3.97;;;9.60;73.10;;;;;;5049006;28;20418;-67
2021/04/23 00:45:53;;;;;;;14.40;4.30;;;9.60;74.10;;;;;;5048977;28;20175;-66
2021/04/23 00:48:19;;;;;;;11.07;3.70;;;9.60;71.70;;;;;;5045999;28;20429;-67
2021/04/23 00:50:49;;;;;;;12.80;4.27;;;9.50;72.30;;;;;;5052032;28;20426;-65
2021/04/23 00:53:18;;;;;;;12.87;4.37;;;9.50;72.80;;;;;;5048745;28;20505;-66
2021/04/23 00:55:44;;;;;;;9.43;4.00;;;9.50;73.40;;;;;;5047065;28;20425;-67
2021/04/23 00:58:13;;;;;;;9.93;3.73;;;9.40;73.00;;;;;;5044671;28;21003;-65
2021/04/23 01:00:41;;;;;;;11.80;4.43;;;9.40;72.50;;;;;;5044223;28;20183;-66
2021/04/23 01:03:09;;;;;;;9.03;3.77;;;9.40;71.20;;;;;;5046804;28;20516;-65
2021/04/23 01:05:36;;;;;;;11.73;3.80;;;9.40;73.20;;;;;;5046284;28;20413;-67
2021/04/23 01:08:02;;;;;;;11.57;4.27;;;9.40;74.10;;;;;;5051490;28;20417;-67
2021/04/23 01:10:28;;;;;;;11.80;4.30;;;9.30;73.10;;;;;;5048526;28;20420;-68
2021/04/23 01:12:54;;;;;;;13.77;3.90;;;9.20;74.20;;;;;;5049734;28;20422;-66
2021/04/23 01:15:21;;;;;;;13.00;5.00;;;9.20;73.90;;;;;;5046947;28;20534;-67
2021/04/23 01:17:47;;;;;;;13.33;5.03;;;9.20;74.30;;;;;;5045218;28;20436;-67
2021/04/23 01:20:13;;;;;;;11.30;4.30;;;9.30;75.00;;;;;;5044090;28;20924;-66
2021/04/23 01:22:40;;;;;;;11.97;3.97;;;9.30;77.00;;;;;;5046530;28;20172;-65
2021/04/23 01:25:06;;;;;;;8.87;3.87;;;9.30;74.70;;;;;;5048037;28;20414;-66
2021/04/23 01:27:32;;;;;;;11.30;4.60;;;9.30;74.10;;;;;;5049496;28;20426;-67
2021/04/23 01:29:58;;;;;;;11.13;4.33;;;9.30;74.70;;;;;;5048246;28;20425;-67
2021/04/23 01:32:25;;;;;;;10.90;3.90;;;9.30;76.20;;;;;;5046775;28;20425;-67
2021/04/23 01:34:50;;;;;;;8.90;4.20;;;9.30;75.50;;;;;;5042665;28;20175;-67
2021/04/23 01:37:16;;;;;;;14.30;4.37;;;9.30;74.00;;;;;;5046874;28;20741;-67
2021/04/23 01:39:43;;;;;;;13.53;4.37;;;9.30;75.20;;;;;;5049312;28;20302;-66
2021/04/23 01:42:11;;;;;;;13.23;4.37;;;9.20;75.30;;;;;;5046320;28;20258;-67
2021/04/23 01:44:37;;;;;;;11.53;4.63;;;9.20;76.10;;;;;;5046557;28;20415;-67
2021/04/23 01:47:04;;;;;;;8.43;4.07;;;9.20;76.10;;;;;;5050577;28;20441;-66
2021/04/23 01:49:30;;;;;;;8.97;4.40;;;9.20;75.30;;;;;;5044967;28;20417;-67
2021/04/23 01:51:59;;;;;;;11.43;4.10;;;9.10;75.40;;;;;;5047765;28;20413;-68
2021/04/23 01:54:26;;;;;;;11.73;4.47;;;9.10;76.20;;;;;;5046043;28;20448;-65
2021/04/23 01:56:53;;;;;;;10.63;4.37;;;9.10;76.20;;;;;;5044785;28;20943;-67
2021/04/23 01:59:19;;;;;;;10.47;4.10;;;9.10;76.70;;;;;;5043490;28;20453;-68
2021/04/23 02:01:45;;;;;;;10.53;3.83;;;9.00;76.70;;;;;;5047716;28;20425;-66
2021/04/23 02:04:14;;;;;;;11.63;4.60;;;9.00;76.10;;;;;;5040565;28;20420;-67
2021/04/23 02:06:40;;;;;;;13.27;5.00;;;9.00;77.20;;;;;;5046953;28;20788;-65
2021/04/23 02:09:08;;;;;;;11.10;4.20;;;8.90;76.90;;;;;;5046388;28;20423;-66
2021/04/23 02:11:34;;;;;;;8.60;4.27;;;8.90;77.10;;;;;;5044462;28;20182;-65
2021/04/23 02:14:01;;;;;;;12.70;5.17;;;8.90;77.00;;;;;;5047159;28;20454;-66
2021/04/23 02:16:28;;;;;;;9.60;4.17;;;8.90;77.50;;;;;;5045733;28;20422;-67
2021/04/23 02:18:54;;;;;;;13.67;4.53;;;8.90;76.90;;;;;;5043365;28;20550;-68
2021/04/23 02:21:20;;;;;;;10.73;4.30;;;8.80;77.50;;;;;;5047120;28;20844;-66
2021/04/23 02:23:48;;;;;;;8.87;4.47;;;8.80;77.90;;;;;;5048668;28;20186;-67
2021/04/23 02:26:14;;;;;;;12.77;4.83;;;8.80;78.00;;;;;;5046146;28;20873;-67
2021/04/23 02:28:42;;;;;;;7.27;4.17;;;8.80;76.60;;;;;;5045812;28;20414;-68
2021/04/23 02:31:14;;;;;;;12.40;4.70;;;8.80;78.20;;;;;;5049238;28;20425;-68
2021/04/23 02:33:44;;;;;;;10.13;4.67;;;8.80;78.10;;;;;;5046823;28;20471;-66
2021/04/23 02:36:10;;;;;;;12.97;4.97;;;8.70;79.80;;;;;;5046761;28;20418;-67
2021/04/23 02:38:35;;;;;;;10.97;4.40;;;8.60;80.20;;;;;;5046345;28;20538;-67
2021/04/23 02:41:04;;;;;;;11.57;4.50;;;8.60;81.20;;;;;;5051229;28;20580;-67
2021/04/23 02:43:33;;;;;;;12.23;4.93;;;8.50;81.10;;;;;;5047437;28;20186;-66
2021/04/23 02:46:00;;;;;;;9.57;4.63;;;8.50;81.50;;;;;;5042752;28;20751;-66
2021/04/23 02:48:28;;;;;;;15.60;5.50;;;8.50;82.30;;;;;;5046240;28;20456;-65
2021/04/23 02:51:00;;;;;;;8.73;4.03;;;8.60;81.80;;;;;;5040189;28;20479;-66
2021/04/23 02:53:26;;;;;;;13.40;4.77;;;8.60;82.20;;;;;;5047124;28;20429;-67
2021/04/23 02:55:52;;;;;;;12.20;4.43;;;8.70;81.30;;;;;;5044279;28;20430;-66
2021/04/23 02:58:19;;;;;;;10.23;4.63;;;8.70;80.20;;;;;;5019296;28;20541;-67
2021/04/23 03:00:48;;;;;;;17.90;4.73;;;8.60;81.30;;;;;;5049578;28;20260;-68
2021/04/23 03:03:15;;;;;;;10.00;4.83;;;8.60;82.50;;;;;;5050975;28;20414;-65
2021/04/23 03:05:43;;;;;;;9.90;4.73;;;8.60;82.80;;;;;;5048944;28;20413;-66
2021/04/23 03:08:10;;;;;;;14.03;4.33;;;8.50;84.60;;;;;;5047176;28;20534;-65
2021/04/23 03:10:42;;;;;;;11.80;4.73;;;8.40;83.10;;;;;;5050733;28;20417;-66
2021/04/23 03:13:19;;;;;;;10.27;4.10;;;8.30;85.00;;;;;;5050476;28;20936;-67
2021/04/23 03:15:46;;;;;;;12.53;4.40;;;8.20;86.30;;;;;;5045062;28;20504;-68
2021/04/23 03:18:14;;;;;;;10.03;4.67;;;8.20;86.10;;;;;;5048902;28;20445;-65
2021/04/23 03:20:40;;;;;;;15.40;5.20;;;8.20;85.20;;;;;;5048908;28;20421;-65
2021/04/23 03:23:06;;;;;;;10.83;4.47;;;8.50;86.90;;;;;;5048432;28;20410;-67
2021/04/23 03:25:32;;;;;;;11.40;5.00;;;7.90;87.10;;;;;;5045151;28;20180;-67
2021/04/23 03:27:58;;;;;;;13.00;5.10;;;7.80;88.70;;;;;;5043262;28;20643;-65
2021/04/23 03:30:29;;;;;;;10.70;4.77;;;7.70;89.60;;;;;;5049890;28;20448;-66
2021/04/23 03:33:02;;;;;;;13.03;5.37;;;7.60;89.50;;;;;;5050792;28;20493;-66
2021/04/23 03:35:29;;;;;;;13.80;4.97;;;7.30;90.10;;;;;;5049506;28;20502;-66
2021/04/23 03:37:55;;;;;;;17.60;6.10;;;7.20;90.80;;;;;;5047209;28;20406;-65
2021/04/23 03:40:24;;;;;;;15.80;4.97;;;7.00;91.00;;;;;;5054380;28;20460;-67
2021/04/23 03:42:50;;;;;;;14.00;5.07;;;6.80;91.50;;;;;;5045034;28;20415;-66
2021/04/23 03:45:18;;;;;;;11.90;4.67;;;6.80;92.30;;;;;;5050272;28;20421;-66
2021/04/23 03:47:44;;;;;;;13.00;4.70;;;6.60;92.30;;;;;;5047726;28;20171;-65
2021/04/23 03:50:11;;;;;;;13.80;4.90;;;6.60;92.80;;;;;;5048058;28;20421;-65
2021/04/23 03:52:37;;;;;;;8.03;4.30;;;6.50;93.30;;;;;;5050023;28;20467;-66
2021/04/23 03:55:05;;;;;;;13.60;5.23;;;6.40;93.80;;;;;;5046756;28;20534;-66
2021/04/23 03:57:31;;;;;;;17.47;4.70;;;6.30;94.30;;;;;;5045510;28;20164;-67
2021/04/23 03:59:56;;;;;;;11.90;4.63;;;6.20;94.60;;;;;;5046795;28;20454;-65
2021/04/23 04:02:22;;;;;;;12.70;4.43;;;6.20;95.70;;;;;;5048422;28;20186;-67
2021/04/23 04:04:48;;;;;;;10.77;4.77;;;6.20;95.60;;;;;;5046453;28;20930;-66
2021/04/23 04:07:13;;;;;;;11.10;5.03;;;6.20;95.20;;;;;;5045424;28;20175;-67
2021/04/23 04:09:39;;;;;;;11.87;4.60;;;6.10;95.10;;;;;;5048874;28;20175;-66
2021/04/23 04:12:06;;;;;;;14.93;4.70;;;6.00;95.30;;;;;;5051955;28;20543;-67
2021/04/23 04:14:31;;;;;;;13.53;5.27;;;6.00;95.90;;;;;;5045103;28;20175;-67
2021/04/23 04:16:57;;;;;;;9.53;5.00;;;5.90;96.60;;;;;;5045274;28;20484;-68
2021/04/23 04:19:23;;;;;;;10.20;4.80;;;5.90;95.90;;;;;;5046373;28;20249;-68
2021/04/23 04:21:48;;;;;;;11.93;5.00;;;5.90;96.50;;;;;;5048003;28;20629;-65
2021/04/23 04:24:14;;;;;;;14.00;5.10;;;5.70;96.90;;;;;;5049408;28;20171;-66
2021/04/23 04:26:39;;;;;;;10.80;4.63;;;5.70;97.30;;;;;;5046180;28;20232;-65
2021/04/23 04:29:05;;;;;;;15.80;5.57;;;5.60;98.10;;;;;;5049178;28;20254;-67
2021/04/23 04:31:31;;;;;;;13.50;5.10;;;5.70;99.00;;;;;;5048615;28;20682;-66
2021/04/23 04:33:57;;;;;;;10.17;4.70;;;5.70;98.00;;;;;;5046774;28;20183;-65
2021/04/23 04:36:22;;;;;;;11.57;4.70;;;5.70;97.60;;;;;;5047488;28;20179;-65
2021/04/23 04:38:48;;;;;;;24.33;5.57;;;5.60;98.00;;;;;;5047759;28;20448;-66
2021/04/23 04:41:14;;;;;;;19.53;5.10;;;5.60;98.50;;;;;;5051442;28;20222;-66
2021/04/23 04:43:41;;;;;;;9.97;4.90;;;5.60;98.40;;;;;;5044983;28;20183;-67
2021/04/23 04:46:07;;;;;;;9.53;4.57;;;5.60;98.60;;;;;;5047843;28;20180;-67
2021/04/23 04:48:33;;;;;;;9.83;5.00;;;5.50;98.50;;;;;;5045882;28;20447;-66
2021/04/23 04:51:00;;;;;;;9.70;4.90;;;5.50;99.90;;;;;;5031524;28;20417;-66
2021/04/23 04:53:26;;;;;;;11.90;5.00;;;5.50;99.90;;;;;;5047135;28;20194;-65
2021/04/23 04:55:54;;;;;;;9.77;4.80;;;5.60;99.90;;;;;;5048573;28;20426;-65
2021/04/23 04:58:24;;;;;;;11.27;4.90;;;5.60;99.50;;;;;;5047558;28;20473;-66
2021/04/23 05:00:51;;;;;;;13.50;5.27;;;5.70;98.80;;;;;;5048322;28;20416;-66
2021/04/23 05:03:16;;;;;;;17.00;5.50;;;5.70;98.60;;;;;;5045577;28;20414;-67
2021/04/23 05:05:44;;;;;;;12.77;5.23;;;5.80;99.30;;;;;;5048532;28;20421;-65
2021/04/23 05:08:10;;;;;;;12.00;5.30;;;5.80;98.20;;;;;;5049058;28;20183;-67
2021/04/23 05:10:36;;;;;;;14.03;5.27;;;5.90;98.50;;;;;;5026621;28;20417;-68
2021/04/23 05:13:02;;;;;;;11.27;5.07;;;5.90;98.70;;;;;;5045352;28;20464;-67
2021/04/23 05:15:28;;;;;;;10.83;5.10;;;6.10;98.60;;;;;;5042796;28;20422;-65
2021/04/23 05:17:55;;;;;;;12.80;6.03;;;6.20;98.00;;;;;;5048640;28;20538;-65
2021/04/23 05:20:21;;;;;;;12.93;5.83;;;6.30;98.30;;;;;;5047738;28;20777;-68
2021/04/23 05:22:47;;;;;;;11.37;5.90;;;6.40;97.60;;;;;;5049674;28;20432;-68
2021/04/23 05:25:17;;;;;;;13.67;5.27;;;6.50;97.00;;;;;;5048136;28;20823;-67
2021/04/23 05:27:43;;;;;;;10.13;5.03;;;6.70;96.80;;;;;;5048203;28;20232;-65
2021/04/23 05:30:12;;;;;;;11.73;5.30;;;6.80;96.20;;;;;;5048069;28;20811;-68
2021/04/23 05:32:39;;;;;;;17.70;5.17;;;7.00;94.60;;;;;;5051007;28;20445;-67
2021/04/23 05:35:06;;;;;;;13.83;5.87;;;7.10;93.80;;;;;;5047816;28;20441;-64
2021/04/23 05:37:32;;;;;;;15.73;6.27;;;7.20;93.10;;;;;;5046467;28;20429;-64
2021/04/23 05:39:57;;;;;;;10.87;5.80;;;7.40;92.40;;;;;;5048376;28;20843;-64
2021/04/23 05:42:23;;;;;;;9.97;4.93;;;7.60;92.50;;;;;;5050863;28;20183;-65
2021/04/23 05:44:49;;;;;;;12.40;5.43;;;7.80;91.10;;;;;;5049540;28;20183;-66
2021/04/23 05:47:14;;;;;;;13.47;5.17;;;7.90;90.70;;;;;;5046414;28;20171;-66
2021/04/23 05:49:40;;;;;;;12.37;5.63;;;8.00;90.10;;;;;;5049225;28;20264;-67
2021/04/23 05:52:08;;;;;;;9.43;5.10;;;8.10;90.80;;;;;;5050684;28;20178;-66
2021/04/23 05:54:34;;;;;;;14.33;4.50;;;8.30;90.00;;;;;;5043790;28;20171;-65
2021/04/23 05:57:01;;;;;;;12.27;5.23;;;8.50;88.80;;;;;;5044318;28;20405;-67
2021/04/23 05:59:27;;;;;;;17.47;4.97;;;8.60;85.90;;;;;;5046757;28;20943;-66
2021/04/23 06:01:52;;;;;;;13.67;5.00;;;8.70;86.40;;;;;;5044510;28;20448;-65
2021/04/23 06:04:18;;;;;;;9.43;4.80;;;8.80;85.60;;;;;;5046351;28;20449;-65
2021/04/23 06:06:44;;;;;;;11.03;5.00;;;8.90;83.50;;;;;;5047423;28;20214;-67
2021/04/23 06:09:09;;;;;;;8.90;4.53;;;9.00;83.50;;;;;;5047662;28;20206;-65
2021/04/23 06:11:36;;;;;;;11.97;4.50;;;9.10;84.40;;;;;;5049289;28;20206;-64
2021/04/23 06:14:02;;;;;;;10.30;4.73;;;9.20;85.20;;;;;;5046032;28;20194;-67
2021/04/23 06:16:28;;;;;;;10.13;4.50;;;9.30;81.50;;;;;;5044986;28;20448;-66
2021/04/23 06:18:54;;;;;;;13.47;5.40;;;9.40;80.20;;;;;;5047097;28;20476;-66
2021/04/23 06:21:19;;;;;;;13.00;4.70;;;9.40;82.30;;;;;;5045972;28;20175;-67
2021/04/23 06:23:45;;;;;;;14.03;4.60;;;9.50;81.70;;;;;;5047214;28;20763;-66
2021/04/23 06:26:11;;;;;;;16.23;4.73;;;9.60;79.60;;;;;;5025379;28;20176;-64
2021/04/23 06:28:37;;;;;;;9.60;4.40;;;9.70;80.30;;;;;;5047679;28;20202;-67
2021/04/23 06:31:03;;;;;;;8.20;4.83;;;9.80;80.70;;;;;;5045974;28;20185;-64
2021/04/23 06:33:38;;;;;;;11.07;4.60;;;9.80;77.80;;;;;;5049864;28;20582;-67
2021/04/23 06:36:05;;;;;;;10.23;3.80;;;9.70;78.30;;;;;;5054315;28;20421;-63
2021/04/23 06:38:32;;;;;;;10.37;4.67;;;9.80;79.40;;;;;;5048071;28;20772;-66
2021/04/23 06:40:58;;;;;;;15.30;5.00;;;9.90;78.30;;;;;;5053733;28;20464;-64
2021/04/23 06:43:24;;;;;;;7.90;4.20;;;9.90;78.20;;;;;;5052547;28;20428;-66
2021/04/23 06:45:50;;;;;;;14.47;5.13;;;10.00;78.80;;;;;;5022683;28;20429;-66
2021/04/23 06:48:17;;;;;;;13.53;4.53;;;10.10;79.30;;;;;;5048852;28;20433;-65
2021/04/23 06:50:43;;;;;;;12.77;4.80;;;10.20;76.80;;;;;;5050921;28;20505;-67
2021/04/23 06:53:09;;;;;;;11.17;4.80;;;10.20;78.40;;;;;;5052279;28;20410;-67
2021/04/23 06:55:35;;;;;;;13.37;4.97;;;10.30;76.90;;;;;;5049021;28;20425;-65
2021/04/23 06:58:01;;;;;;;12.43;5.10;;;10.30;76.70;;;;;;5049307;28;20470;-63
2021/04/23 07:00:29;;;;;;;8.93;4.63;;;10.30;75.20;;;;;;5051309;28;20179;-66
2021/04/23 07:02:56;;;;;;;10.40;4.67;;;10.30;74.70;;;;;;5047626;28;20171;-65
2021/04/23 07:05:22;;;;;;;10.27;4.33;;;10.40;76.60;;;;;;5048047;28;20430;-69
2021/04/23 07:07:48;;;;;;;11.50;5.13;;;10.40;74.60;;;;;;5052031;28;20508;-65
2021/04/23 07:10:17;;;;;;;12.20;4.57;;;10.40;73.90;;;;;;5052409;28;20572;-68
2021/04/23 07:12:43;;;;;;;12.13;4.77;;;10.40;74.20;;;;;;5047891;28;20175;-67
2021/04/23 07:15:11;;;;;;;12.83;4.90;;;10.40;75.90;;;;;;5049507;28;20187;-68
2021/04/23 07:17:37;;;;;;;15.43;4.70;;;10.50;74.40;;;;;;5051790;28;20197;-68
2021/04/23 07:20:03;;;;;;;16.50;5.43;;;10.60;75.10;;;;;;5053388;28;20464;-67
2021/04/23 07:22:29;;;;;;;11.63;4.93;;;10.70;75.20;;;;;;5051820;28;20197;-67
2021/04/23 07:25:01;;;;;;;13.17;5.00;;;10.70;74.30;;;;;;5053372;28;20409;-69
2021/04/23 07:27:27;;;;;;;12.30;4.77;;;10.70;73.00;;;;;;5053135;28;20183;-69
2021/04/23 07:29:52;;;;;;;9.80;4.73;;;10.80;73.00;;;;;;5053280;28;20190;-67
2021/04/23 07:32:18;;;;;;;11.50;5.53;;;10.90;71.60;;;;;;5052845;28;20539;-69
2021/04/23 07:34:44;;;;;;;13.80;5.50;;;10.90;72.40;;;;;;5052866;28;20279;-67
2021/04/23 07:37:09;;;;;;;12.10;6.10;;;10.90;72.40;;;;;;5053239;28;20183;-67
2021/04/23 07:39:35;;;;;;;13.93;5.40;;;10.90;71.00;;;;;;5053000;28;20708;-67
2021/04/23 07:42:01;;;;;;;15.20;5.93;;;10.90;71.50;;;;;;5053935;28;20256;-67
2021/04/23 07:44:28;;;;;;;11.93;5.70;;;10.90;72.30;;;;;;5052124;28;20644;-67
2021/04/23 07:46:54;;;;;;;10.17;5.27;;;11.00;73.30;;;;;;5052967;28;20190;-67
2021/04/23 07:49:20;;;;;;;10.00;4.70;;;11.10;72.90;;;;;;5051406;28;20771;-67
2021/04/23 07:51:46;;;;;;;16.67;5.87;;;11.20;72.10;;;;;;5050237;28;20179;-67
2021/04/23 07:54:12;;;;;;;9.40;5.60;;;11.30;71.10;;;;;;5050109;28;20532;-66
2021/04/23 07:56:39;;;;;;;9.87;4.53;;;11.50;70.80;;;;;;5051297;28;20186;-67
2021/04/23 07:59:05;;;;;;;7.17;4.90;;;11.50;69.10;;;;;;5051515;28;20191;-67
2021/04/23 08:01:31;;;;;;;11.97;5.10;;;11.60;70.10;;;;;;5033410;28;20178;-67
2021/04/23 08:03:57;;;;;;;10.63;5.10;;;11.70;70.10;;;;;;5048858;28;20305;-68
2021/04/23 08:06:23;;;;;;;8.17;5.03;;;11.80;68.10;;;;;;5049854;28;20182;-69
2021/04/23 08:08:49;;;;;;;14.83;5.47;;;11.80;67.80;;;;;;5048299;28;20532;-65
2021/04/23 08:11:14;;;;;;;14.20;5.50;;;11.90;66.70;;;;;;5051892;28;20237;-67
2021/04/23 08:13:40;;;;;;;13.83;5.90;;;12.00;65.90;;;;;;5051213;28;20185;-70
2021/04/23 08:16:06;;;;;;;13.03;5.80;;;12.00;66.00;;;;;;5049681;28;20179;-67
2021/04/23 08:18:38;;;;;;;17.27;6.33;;;12.10;65.10;;;;;;5045766;28;20203;-66
2021/04/23 08:21:05;;;;;;;10.33;5.60;;;12.00;63.80;;;;;;5049233;28;20186;-66
2021/04/23 08:23:32;;;;;;;12.67;5.70;;;12.10;66.20;;;;;;5049643;28;20644;-68
2021/04/23 08:25:58;;;;;;;14.17;6.20;;;12.10;64.30;;;;;;5050615;28;20265;-69
2021/04/23 08:28:25;;;;;;;14.03;6.00;;;12.20;63.50;;;;;;5049941;28;20258;-66
2021/04/23 08:30:51;;;;;;;17.43;6.63;;;12.20;63.60;;;;;;5047564;28;20191;-67
2021/04/23 08:33:17;;;;;;;52.30;13.20;;;12.30;64.30;;;;;;5050547;28;20251;-65
2021/04/23 08:35:43;;;;;;;8.97;5.77;;;12.30;64.50;;;;;;5050514;28;20179;-67
2021/04/23 08:38:09;;;;;;;15.07;6.93;;;12.40;63.00;;;;;;5050365;28;20230;-67
2021/04/23 08:40:35;;;;;;;14.33;6.83;;;12.60;62.10;;;;;;5051494;28;20277;-64
2021/04/23 08:43:00;;;;;;;11.73;5.97;;;12.60;60.50;;;;;;5051634;28;20660;-65
2021/04/23 08:45:26;;;;;;;10.70;6.80;;;12.70;61.90;;;;;;5051992;28;20225;-65
2021/04/23 08:47:52;;;;;;;12.80;5.90;;;12.80;60.80;;;;;;5051945;28;20186;-65
2021/04/23 08:50:23;;;;;;;18.03;6.63;;;12.80;60.10;;;;;;5048011;28;20261;-66
2021/04/23 08:52:49;;;;;;;13.57;7.00;;;12.80;61.00;;;;;;5019825;28;20269;-66
2021/04/23 08:55:20;;;;;;;12.60;6.00;;;12.90;58.90;;;;;;5048187;28;20178;-67
2021/04/23 08:57:46;;;;;;;11.83;7.17;;;13.00;60.20;;;;;;5050239;28;20182;-65
2021/04/23 09:00:12;;;;;;;16.33;7.27;;;13.00;58.40;;;;;;5049785;28;20282;-66
2021/04/23 09:02:45;;;;;;;12.37;7.20;;;13.00;57.90;;;;;;5050271;28;20170;-67
2021/04/23 09:05:13;;;;;;;15.97;6.43;;;13.00;57.40;;;;;;5049675;28;20175;-64
2021/04/23 09:07:38;;;;;;;19.67;6.90;;;13.00;58.10;;;;;;5051424;28;20178;-67
2021/04/23 09:10:15;;;;;;;13.67;7.00;;;13.10;58.70;;;;;;5050736;28;20175;-66
2021/04/23 09:12:41;;;;;;;11.77;7.67;;;13.20;57.80;;;;;;5051216;28;20178;-66
2021/04/23 09:15:24;;;;;;;17.57;7.97;;;13.30;57.10;;;;;;5048437;28;20283;-68
2021/04/23 09:18:13;;;;;;;14.13;6.53;;;13.20;56.50;;;;;;5051413;28;20171;-66
2021/04/23 09:20:48;;;;;;;11.57;6.70;;;13.40;57.60;;;;;;5051117;28;20186;-67
2021/04/23 09:23:16;;;;;;;11.07;6.43;;;13.50;56.10;;;;;;5051533;28;20178;-66
2021/04/23 09:25:55;;;;;;;13.50;6.20;;;13.60;57.10;;;;;;5051222;28;20179;-66
2021/04/23 09:28:50;;;;;;;12.63;6.93;;;13.70;56.30;;;;;;5050664;28;20656;-67
2021/04/23 09:31:29;;;;;;;13.87;8.00;;;13.70;55.70;;;;;;5019579;28;20198;-66
2021/04/23 09:34:02;;;;;;;13.07;7.73;;;13.90;55.50;;;;;;5049196;28;20202;-66
2021/04/23 09:36:31;;;;;;;10.23;6.00;;;13.90;54.70;;;;;;5050937;28;20269;-66
2021/04/23 09:39:03;;;;;;;9.67;6.17;;;14.10;55.00;;;;;;5049423;28;20284;-65
2021/04/23 09:41:29;;;;;;;13.70;7.23;;;14.20;54.50;;;;;;5052239;28;20240;-65
2021/04/23 09:43:54;;;;;;;9.13;6.83;;;14.10;53.60;;;;;;5051131;28;20175;-68
2021/04/23 09:46:35;;;;;;;14.17;6.50;;;14.00;52.80;;;;;;5047687;28;20198;-67
2021/04/23 09:49:14;;;;;;;37.43;8.70;;;14.10;53.00;;;;;;5014415;28;20176;-66
2021/04/23 09:51:40;;;;;;;14.47;6.87;;;14.30;52.80;;;;;;5048958;28;20202;-67
2021/04/23 09:54:23;;;;;;;14.33;7.17;;;14.50;52.20;;;;;;5050519;28;20179;-66
2021/04/23 09:56:51;;;;;;;11.90;6.80;;;14.50;51.20;;;;;;5050473;28;20171;-65
2021/04/23 09:59:23;;;;;;;10.63;6.67;;;14.50;51.50;;;;;;5049111;28;20235;-69
2021/04/23 10:01:49;;;;;;;13.80;7.17;;;14.40;50.70;;;;;;5049090;28;20217;-70
2021/04/23 10:04:20;;;;;;;10.03;6.97;;;14.60;51.50;;;;;;5050491;28;20175;-67
2021/04/23 10:06:45;;;;;;;10.27;6.70;;;14.80;51.20;;;;;;5050483;28;20202;-70
2021/04/23 10:09:11;;;;;;;11.57;6.17;;;14.80;50.40;;;;;;5050218;28;20683;-68
2021/04/23 10:11:43;;;;;;;14.10;6.30;;;14.70;47.90;;;;;;5047429;28;20261;-71
2021/04/23 10:14:13;;;;;;;12.47;7.10;;;14.70;47.60;;;;;;5050202;28;20175;-69
2021/04/23 10:16:39;;;;;;;11.10;6.60;;;14.60;48.30;;;;;;5050214;28;20179;-68
2021/04/23 10:19:05;;;;;;;14.70;6.87;;;14.60;49.10;;;;;;5050280;28;20225;-69
2021/04/23 10:21:31;;;;;;;14.37;7.37;;;14.70;48.60;;;;;;5050267;28;20174;-69
2021/04/23 10:23:59;;;;;;;10.67;6.27;;;14.70;48.00;;;;;;5050771;28;20778;-69
2021/04/23 10:26:26;;;;;;;12.73;6.70;;;14.70;50.20;;;;;;5046403;28;20195;-69
2021/04/23 10:28:53;;;;;;;12.20;6.53;;;14.80;48.70;;;;;;5050395;28;20545;-68
2021/04/23 10:31:19;;;;;;;10.60;6.10;;;15.00;48.90;;;;;;5048619;28;20187;-68
2021/04/23 10:33:45;;;;;;;10.57;6.00;;;14.90;46.60;;;;;;5050603;28;20190;-69
2021/04/23 10:36:10;;;;;;;14.63;5.93;;;14.90;45.70;;;;;;5050323;28;20171;-69
2021/04/23 10:38:38;;;;;;;15.63;7.57;;;14.90;47.50;;;;;;5047158;28;20258;-70
2021/04/23 10:41:07;;;;;;;11.33;6.67;;;14.90;47.20;;;;;;5050959;28;20253;-69
2021/04/23 10:43:34;;;;;;;8.63;5.10;;;14.80;47.20;;;;;;5049788;28;20174;-69
2021/04/23 10:46:12;;;;;;;12.33;5.20;;;14.70;44.10;;;;;;5050151;28;20638;-66
2021/04/23 10:48:42;;;;;;;14.97;6.57;;;14.60;44.20;;;;;;5049495;28;20225;-78
